Terminal Aerodrome Forecast
Issued by NWS Charleston, WV

Current Version | Previous Version | Graphics & Text | Print | Product List | Glossary On
Versions: 1 2 3 4 5 6 7 8 9 10 11 12 13 14 15 16 17 18 19 20 21 22
000
FTUS41 KRLX 152300
TAFPKB
TAF
KPKB 152323Z 1600/1624 06006KT P6SM FEW150
     FM160200 07008KT P6SM BKN250
     FM161200 12008KT P6SM OVC045
     FM161600 15008G15KT P6SM -SHRA OVC060
     FM162000 16006G15KT P6SM OVC045=

USA.gov is the U.S. government's official web portal to all federal, state and local government web resources and services.